createdAt,value
2023-04-02T00:01:23.857Z,5.60
2023-04-02T00:03:59.342Z,4.90
2023-04-02T00:06:25.978Z,4.10
2023-04-02T00:08:56.185Z,4.63
2023-04-02T00:11:37.382Z,3.38
2023-04-02T00:14:06.386Z,3.65
2023-04-02T00:16:33.291Z,3.50
2023-04-02T00:19:04.266Z,3.88
2023-04-02T00:21:36.171Z,2.78
2023-04-02T00:24:13.675Z,3.00
2023-04-02T00:26:44.627Z,3.72
2023-04-02T00:29:13.509Z,2.85
2023-04-02T00:31:48.341Z,3.25
2023-04-02T00:34:20.152Z,3.45
2023-04-02T00:36:47.817Z,3.03
2023-04-02T00:39:22.082Z,3.10
2023-04-02T00:41:49.224Z,2.38
2023-04-02T00:44:21.555Z,3.20
2023-04-02T00:46:49.661Z,2.67
2023-04-02T00:49:30.621Z,2.60
2023-04-02T00:52:00.442Z,3.15
2023-04-02T00:54:31.573Z,3.03
2023-04-02T00:56:58.518Z,5.20
2023-04-02T00:59:36.693Z,3.42
2023-04-02T01:02:17.329Z,5.90
2023-04-02T01:04:53.516Z,3.25
2023-04-02T01:07:25.217Z,3.15
2023-04-02T01:10:11.505Z,3.20
2023-04-02T01:13:24.898Z,5.35
2023-04-02T01:16:18.421Z,4.35
2023-04-02T01:19:18.735Z,3.60
2023-04-02T01:22:08.000Z,4.43
2023-04-02T01:24:37.227Z,4.20
2023-04-02T01:27:08.197Z,8.05
2023-04-02T01:29:39.613Z,6.63
2023-04-02T01:32:10.307Z,5.00
2023-04-02T01:34:37.933Z,7.75
2023-04-02T01:37:27.622Z,7.35
2023-04-02T01:39:56.967Z,7.25
2023-04-02T01:42:30.063Z,6.28
2023-04-02T01:45:02.340Z,5.03
2023-04-02T01:47:29.661Z,6.60
2023-04-02T01:50:32.720Z,5.50
2023-04-02T01:53:09.148Z,6.70
2023-04-02T01:55:43.795Z,6.35
2023-04-02T01:58:11.896Z,5.53
2023-04-02T02:00:45.033Z,5.18
2023-04-02T02:03:12.862Z,3.85
2023-04-02T02:05:39.886Z,5.70
2023-04-02T02:08:13.450Z,6.47
2023-04-02T02:10:40.117Z,6.18
2023-04-02T02:13:06.724Z,5.85
2023-04-02T02:15:34.140Z,6.72
2023-04-02T02:18:04.249Z,8.18
2023-04-02T02:20:32.312Z,8.35
2023-04-02T02:23:00.125Z,6.35
2023-04-02T02:25:32.646Z,7.55
2023-04-02T02:28:02.144Z,6.93
2023-04-02T02:30:43.789Z,9.05
2023-04-02T02:33:25.501Z,7.30
2023-04-02T02:36:06.427Z,7.00
2023-04-02T02:38:43.192Z,7.85
2023-04-02T02:41:26.491Z,10.52
2023-04-02T02:44:19.802Z,6.68
2023-04-02T02:46:53.672Z,5.63
2023-04-02T02:49:26.474Z,9.13
2023-04-02T02:51:59.168Z,5.05
2023-04-02T02:54:33.377Z,6.50
2023-04-02T02:57:03.480Z,4.00
2023-04-02T02:59:31.183Z,7.60
2023-04-02T03:01:59.581Z,7.97
2023-04-02T03:04:26.604Z,7.38
2023-04-02T03:06:57.020Z,8.63
2023-04-02T03:09:40.027Z,8.00
2023-04-02T03:12:12.419Z,7.32
2023-04-02T03:14:44.310Z,6.32
2023-04-02T03:17:19.878Z,7.30
2023-04-02T03:20:01.918Z,24.35
2023-04-02T03:22:35.375Z,5.85
2023-04-02T03:25:21.977Z,7.97
2023-04-02T03:27:51.886Z,7.80
2023-04-02T03:30:58.809Z,6.32
2023-04-02T03:33:28.756Z,8.05
2023-04-02T03:36:03.749Z,6.20
2023-04-02T03:38:35.138Z,6.07
2023-04-02T03:41:30.611Z,9.15
2023-04-02T03:44:01.255Z,6.85
2023-04-02T03:46:39.906Z,10.57
2023-04-02T03:49:11.163Z,11.65
2023-04-02T03:51:42.716Z,6.78
2023-04-02T03:54:13.573Z,8.25
2023-04-02T03:56:40.622Z,7.57
2023-04-02T03:59:44.292Z,9.07
2023-04-02T04:02:26.933Z,13.20
2023-04-02T04:04:54.962Z,10.13
2023-04-02T04:07:30.006Z,13.07
2023-04-02T04:09:57.066Z,11.93
2023-04-02T04:12:26.808Z,10.75
2023-04-02T04:15:02.508Z,12.98
2023-04-02T04:17:35.481Z,12.00
2023-04-02T04:20:15.157Z,12.57
2023-04-02T04:22:41.732Z,15.65
2023-04-02T04:25:29.699Z,10.05
2023-04-02T04:28:08.017Z,15.63
2023-04-02T04:31:09.142Z,10.93
2023-04-02T04:33:42.360Z,12.40
2023-04-02T04:36:27.713Z,12.50
2023-04-02T04:39:01.562Z,14.13
2023-04-02T04:41:36.119Z,12.77
2023-04-02T04:44:10.341Z,12.97
2023-04-02T04:46:45.957Z,14.45
2023-04-02T04:49:15.254Z,11.85
2023-04-02T04:51:47.802Z,12.45
2023-04-02T04:54:15.766Z,11.80
2023-04-02T04:56:48.488Z,10.35
2023-04-02T04:59:19.482Z,11.98
2023-04-02T05:02:16.058Z,11.18
2023-04-02T05:04:44.688Z,12.20
2023-04-02T05:07:30.440Z,13.48
2023-04-02T05:10:01.668Z,13.02
2023-04-02T05:12:52.686Z,9.57
2023-04-02T05:15:26.141Z,14.70
2023-04-02T05:18:26.700Z,11.55
2023-04-02T05:21:07.180Z,10.52
2023-04-02T05:23:37.847Z,9.75
2023-04-02T05:26:21.922Z,10.20
2023-04-02T05:28:54.954Z,10.05
2023-04-02T05:31:28.139Z,10.02
2023-04-02T05:33:55.548Z,9.57
2023-04-02T05:36:25.057Z,13.65
2023-04-02T05:38:56.439Z,11.70
2023-04-02T05:41:38.337Z,8.10
2023-04-02T05:44:08.075Z,9.60
2023-04-02T05:46:37.964Z,8.63
2023-04-02T05:49:09.984Z,10.18
2023-04-02T05:51:46.356Z,9.55
2023-04-02T05:54:21.137Z,8.65
2023-04-02T05:56:51.848Z,7.95
2023-04-02T05:59:32.214Z,4.97
2023-04-02T06:02:03.518Z,6.40
2023-04-02T06:04:43.724Z,6.55
2023-04-02T06:07:18.350Z,7.00
2023-04-02T06:09:56.326Z,5.25
2023-04-02T06:12:43.290Z,5.40
2023-04-02T06:15:15.645Z,4.20
2023-04-02T06:17:49.305Z,3.87
2023-04-02T06:20:17.212Z,8.93
2023-04-02T06:22:55.982Z,6.13
2023-04-02T06:25:32.412Z,7.82
2023-04-02T06:28:01.793Z,3.63
2023-04-02T06:30:32.779Z,5.28
2023-04-02T06:33:00.453Z,3.80
2023-04-02T06:35:28.956Z,6.50
2023-04-02T06:38:01.520Z,4.88
2023-04-02T06:40:47.518Z,6.78
2023-04-02T06:43:35.645Z,4.35
2023-04-02T06:46:28.730Z,6.20
2023-04-02T06:49:05.393Z,3.90
2023-04-02T06:51:33.587Z,4.07
2023-04-02T06:54:02.122Z,5.07
2023-04-02T06:56:38.469Z,5.00
2023-04-02T06:59:07.459Z,5.40
2023-04-02T07:01:40.172Z,4.28
2023-04-02T07:04:06.844Z,5.03
2023-04-02T07:06:39.037Z,5.15
2023-04-02T07:09:06.679Z,5.20
2023-04-02T07:11:35.746Z,5.82
2023-04-02T07:14:05.003Z,5.82
2023-04-02T07:16:33.163Z,6.38
2023-04-02T07:19:00.761Z,4.00
2023-04-02T07:21:30.331Z,6.47
2023-04-02T07:23:57.110Z,8.13
2023-04-02T07:26:27.365Z,6.68
2023-04-02T07:28:55.215Z,3.83
2023-04-02T07:31:27.136Z,3.67
2023-04-02T07:33:58.213Z,7.32
2023-04-02T07:36:24.798Z,8.25
2023-04-02T07:38:51.299Z,5.43
2023-04-02T07:41:19.565Z,6.13
2023-04-02T07:43:46.128Z,6.07
2023-04-02T07:46:16.498Z,6.85
2023-04-02T07:48:43.927Z,5.38
2023-04-02T07:51:17.881Z,4.05
2023-04-02T07:53:44.478Z,3.35
2023-04-02T07:56:18.033Z,5.32
2023-04-02T07:58:45.063Z,4.57
2023-04-02T08:01:21.060Z,4.65
2023-04-02T08:03:47.763Z,7.13
2023-04-02T08:06:14.427Z,6.57
2023-04-02T08:08:41.129Z,7.82
2023-04-02T08:11:08.222Z,6.05
2023-04-02T08:13:34.915Z,5.53
2023-04-02T08:16:02.211Z,6.95
2023-04-02T08:18:29.807Z,4.85
2023-04-02T08:20:56.523Z,5.53
2023-04-02T08:23:23.237Z,5.00
2023-04-02T08:25:50.818Z,5.75
2023-04-02T08:28:17.746Z,5.15
2023-04-02T08:30:44.503Z,4.13
2023-04-02T08:33:11.433Z,5.50
2023-04-02T08:35:38.127Z,4.55
2023-04-02T08:38:04.937Z,4.03
2023-04-02T08:40:36.132Z,5.00
2023-04-02T08:43:17.355Z,5.60
2023-04-02T08:46:02.720Z,5.40
2023-04-02T08:48:31.658Z,4.28
2023-04-02T08:50:58.899Z,5.15
2023-04-02T08:53:29.718Z,4.15
2023-04-02T08:56:18.933Z,4.53
2023-04-02T08:58:51.205Z,6.13
2023-04-02T09:01:31.589Z,6.07
2023-04-02T09:03:59.137Z,6.70
2023-04-02T09:06:28.004Z,6.18
2023-04-02T09:08:55.376Z,7.85
2023-04-02T09:11:31.404Z,5.47
2023-04-02T09:14:00.253Z,4.97
2023-04-02T09:16:54.065Z,3.00
2023-04-02T09:19:32.479Z,6.15
2023-04-02T09:22:03.704Z,4.18
2023-04-02T09:24:30.277Z,2.63
2023-04-02T09:26:56.796Z,5.93
2023-04-02T09:29:37.791Z,4.07
2023-04-02T09:32:14.400Z,3.17
2023-04-02T09:34:41.047Z,4.93
2023-04-02T09:37:22.810Z,5.80
2023-04-02T09:39:49.380Z,5.80
2023-04-02T09:42:38.207Z,10.85
2023-04-02T09:45:23.875Z,13.50
2023-04-02T09:47:51.721Z,5.80
2023-04-02T09:50:21.019Z,4.53
2023-04-02T09:52:48.261Z,6.38
2023-04-02T09:55:15.445Z,5.45
2023-04-02T09:57:42.841Z,4.43
2023-04-02T10:00:29.990Z,6.15
2023-04-02T10:03:19.873Z,6.85
2023-04-02T10:05:47.368Z,6.72
2023-04-02T10:08:27.999Z,3.67
2023-04-02T10:11:00.706Z,5.40
2023-04-02T10:13:49.370Z,5.38
2023-04-02T10:16:33.252Z,4.50
2023-04-02T10:19:20.098Z,7.35
2023-04-02T10:21:49.029Z,3.75
2023-04-02T10:24:16.800Z,5.95
2023-04-02T10:27:02.573Z,9.30
2023-04-02T10:29:50.835Z,6.38
2023-04-02T10:32:32.435Z,7.38
2023-04-02T10:35:03.505Z,8.10
2023-04-02T10:37:52.047Z,5.35
2023-04-02T10:40:29.490Z,9.82
2023-04-02T10:43:23.747Z,5.68
2023-04-02T10:46:04.654Z,5.88
2023-04-02T10:48:37.532Z,9.02
2023-04-02T10:51:19.410Z,7.05
2023-04-02T10:54:24.473Z,7.72
2023-04-02T10:56:53.317Z,8.20
2023-04-02T10:59:23.465Z,10.55
2023-04-02T11:01:51.656Z,8.23
2023-04-02T11:04:28.067Z,6.78
2023-04-02T11:07:13.256Z,12.10
2023-04-02T11:09:43.658Z,7.47
2023-04-02T11:12:43.215Z,6.80
2023-04-02T11:15:20.034Z,8.40
2023-04-02T11:17:47.270Z,7.38
2023-04-02T11:20:43.751Z,6.95
2023-04-02T11:23:12.243Z,7.82
2023-04-02T11:25:38.763Z,11.13
2023-04-02T11:28:20.481Z,6.30
2023-04-02T11:30:50.101Z,10.07
2023-04-02T11:33:39.217Z,10.35
2023-04-02T11:36:49.251Z,5.30
2023-04-02T11:39:55.079Z,6.63
2023-04-02T11:42:30.107Z,7.28
2023-04-02T11:45:00.313Z,7.18
2023-04-02T11:47:28.243Z,7.70
2023-04-02T11:49:54.745Z,6.28
2023-04-02T11:52:34.380Z,4.55
2023-04-02T11:55:22.691Z,7.10
2023-04-02T11:58:17.442Z,4.18
2023-04-02T12:01:05.376Z,6.20
2023-04-02T12:03:43.144Z,7.03
2023-04-02T12:06:27.390Z,8.20
2023-04-02T12:11:33.680Z,5.63
2023-04-02T12:14:01.473Z,7.95
2023-04-02T12:16:32.961Z,4.35
2023-04-02T12:19:00.109Z,6.00
2023-04-02T12:21:28.243Z,4.10
2023-04-02T12:23:58.214Z,5.88
2023-04-02T12:26:37.301Z,4.43
2023-04-02T12:29:27.043Z,6.18
2023-04-02T12:31:57.712Z,5.60
2023-04-02T12:34:26.560Z,3.83
2023-04-02T12:36:59.583Z,6.90
2023-04-02T12:39:28.299Z,2.63
2023-04-02T12:41:55.910Z,3.45
2023-04-02T12:44:25.002Z,2.97
2023-04-02T12:46:52.464Z,2.63
2023-04-02T12:49:34.077Z,2.45
2023-04-02T12:52:15.425Z,5.95
2023-04-02T12:54:47.569Z,4.68
2023-04-02T12:57:22.014Z,6.53
2023-04-02T12:59:48.859Z,1.98
2023-04-02T13:02:21.078Z,2.53
2023-04-02T13:04:52.974Z,4.97
2023-04-02T13:07:21.914Z,2.55
2023-04-02T13:09:53.365Z,4.22
2023-04-02T13:12:24.233Z,2.70
2023-04-02T13:14:57.808Z,3.55
2023-04-02T13:17:44.019Z,2.05
2023-04-02T13:20:36.497Z,4.80
2023-04-02T13:23:28.786Z,5.10
2023-04-02T13:25:56.518Z,4.97
2023-04-02T13:28:23.117Z,2.95
2023-04-02T13:30:49.727Z,4.10
2023-04-02T13:33:16.683Z,4.72
2023-04-02T13:35:43.725Z,3.53
2023-04-02T13:38:10.435Z,6.28
2023-04-02T13:40:37.705Z,5.55
2023-04-02T13:43:06.088Z,2.63
2023-04-02T13:45:34.829Z,2.70
2023-04-02T13:48:01.959Z,3.70
2023-04-02T13:50:30.337Z,5.53
2023-04-02T13:52:58.484Z,3.60
2023-04-02T13:55:28.046Z,4.35
2023-04-02T13:57:55.846Z,3.13
2023-04-02T14:00:22.741Z,4.80
2023-04-02T14:02:54.402Z,4.75
2023-04-02T14:05:35.193Z,2.95
2023-04-02T14:08:09.680Z,1.90
2023-04-02T14:11:03.644Z,4.75
2023-04-02T14:13:36.020Z,3.35
2023-04-02T14:16:30.609Z,5.05
2023-04-02T14:22:03.231Z,2.95
2023-04-02T14:24:49.554Z,2.97
2023-04-02T14:27:45.022Z,3.05
2023-04-02T14:30:18.453Z,3.55
2023-04-02T14:33:05.098Z,2.45
2023-04-02T14:35:36.688Z,3.75
2023-04-02T14:38:14.098Z,2.97
2023-04-02T14:40:49.558Z,3.35
2023-04-02T14:43:32.539Z,2.40
2023-04-02T14:46:07.195Z,4.05
2023-04-02T14:48:56.634Z,5.07
2023-04-02T14:51:30.881Z,4.00
2023-04-02T14:54:16.221Z,5.28
2023-04-02T14:56:48.324Z,4.47
2023-04-02T14:59:39.393Z,4.78
2023-04-02T15:02:14.596Z,4.28
2023-04-02T15:04:44.352Z,3.55
2023-04-02T15:07:19.535Z,3.20
2023-04-02T15:10:21.569Z,2.17
2023-04-02T15:12:48.855Z,3.17
2023-04-02T15:15:39.873Z,5.45
2023-04-02T15:18:16.222Z,4.90
2023-04-02T15:20:52.101Z,3.78
2023-04-02T15:23:36.963Z,4.38
2023-04-02T15:26:13.012Z,5.78
2023-04-02T15:28:55.499Z,4.57
2023-04-02T15:31:24.976Z,5.00
2023-04-02T15:34:02.015Z,3.85
2023-04-02T15:36:33.198Z,3.72
2023-04-02T15:39:20.698Z,2.67
2023-04-02T15:42:05.553Z,3.75
2023-04-02T15:44:32.491Z,5.70
2023-04-02T15:46:58.996Z,5.72
2023-04-02T15:49:35.930Z,5.38
2023-04-02T15:52:10.928Z,3.53
2023-04-02T15:54:37.626Z,5.97
2023-04-02T15:57:37.855Z,4.90
2023-04-02T16:00:10.314Z,4.57
2023-04-02T16:02:54.119Z,4.97
2023-04-02T16:05:31.834Z,7.63
2023-04-02T16:08:22.636Z,6.82
2023-04-02T16:10:49.244Z,6.32
2023-04-02T16:13:30.458Z,3.42
2023-04-02T16:16:09.924Z,5.65
2023-04-02T16:18:56.737Z,5.75
2023-04-02T16:21:25.610Z,7.20
2023-04-02T16:23:52.157Z,5.13
2023-04-02T16:26:47.038Z,3.00
2023-04-02T16:29:40.792Z,6.35
2023-04-02T16:32:36.095Z,3.70
2023-04-02T16:35:40.964Z,3.15
2023-04-02T16:38:29.270Z,2.63
2023-04-02T16:41:20.038Z,4.55
2023-04-02T16:44:11.566Z,5.97
2023-04-02T16:47:02.944Z,4.53
2023-04-02T16:49:44.464Z,5.15
2023-04-02T16:52:35.659Z,6.05
2023-04-02T16:55:25.534Z,4.35
2023-04-02T16:58:39.707Z,3.42
2023-04-02T17:01:06.345Z,3.35
2023-04-02T17:03:46.691Z,5.13
2023-04-02T17:06:13.251Z,4.40
2023-04-02T17:08:52.276Z,2.53
2023-04-02T17:11:31.824Z,3.00
2023-04-02T17:14:06.524Z,5.40
2023-04-02T17:16:42.127Z,5.15
2023-04-02T17:19:14.589Z,4.25
2023-04-02T17:21:47.895Z,5.10
2023-04-02T17:24:21.896Z,2.28
2023-04-02T17:29:24.388Z,5.28
2023-04-02T17:31:52.058Z,5.05
2023-04-02T17:34:22.627Z,2.65
2023-04-02T17:37:07.665Z,4.25
2023-04-02T17:39:44.287Z,4.50
2023-04-02T17:42:10.901Z,3.80
2023-04-02T17:44:50.419Z,4.53
2023-04-02T17:47:40.403Z,2.28
2023-04-02T17:50:39.205Z,3.97
2023-04-02T17:53:30.062Z,3.67
2023-04-02T17:56:34.952Z,4.88
2023-04-02T17:59:34.812Z,4.90
2023-04-02T18:02:14.312Z,3.70
2023-04-02T18:04:51.958Z,5.47
2023-04-02T18:07:34.061Z,2.63
2023-04-02T18:10:19.479Z,9.32
2023-04-02T18:12:57.528Z,3.28
2023-04-02T18:15:46.959Z,5.63
2023-04-02T18:18:38.220Z,3.63
2023-04-02T18:21:18.236Z,5.45
2023-04-02T18:24:21.235Z,3.45
2023-04-02T18:27:09.537Z,10.70
2023-04-02T18:29:58.545Z,7.00
2023-04-02T18:32:54.669Z,5.30
2023-04-02T18:35:32.553Z,4.63
2023-04-02T18:38:19.540Z,3.63
2023-04-02T18:40:57.883Z,2.35
2023-04-02T18:43:33.949Z,2.40
2023-04-02T18:46:19.287Z,4.15
2023-04-02T18:48:56.837Z,3.20
2023-04-02T18:51:26.292Z,3.33
2023-04-02T18:54:09.288Z,4.38
2023-04-02T18:56:40.499Z,5.95
2023-04-02T18:59:41.459Z,2.90
2023-04-02T19:02:24.906Z,2.25
2023-04-02T19:05:01.567Z,4.40
2023-04-02T19:07:29.624Z,3.15
2023-04-02T19:09:56.496Z,6.07
2023-04-02T19:12:23.595Z,1.63
2023-04-02T19:14:51.117Z,3.40
2023-04-02T19:17:37.161Z,5.13
2023-04-02T19:20:22.843Z,6.13
2023-04-02T19:23:07.413Z,4.80
2023-04-02T19:26:00.612Z,4.22
2023-04-02T19:28:32.261Z,5.47
2023-04-02T19:31:07.516Z,5.18
2023-04-02T19:33:41.586Z,3.80
2023-04-02T19:36:29.887Z,6.88
2023-04-02T19:39:03.969Z,8.38
2023-04-02T19:41:36.006Z,5.45
2023-04-02T19:44:02.632Z,2.30
2023-04-02T19:46:29.233Z,7.35
2023-04-02T19:49:07.089Z,2.90
2023-04-02T19:51:33.778Z,4.50
2023-04-02T19:54:00.851Z,3.50
2023-04-02T19:56:28.117Z,2.60
2023-04-02T19:58:55.415Z,2.85
2023-04-02T20:01:23.408Z,8.85
2023-04-02T20:03:50.074Z,7.53
2023-04-02T20:06:17.022Z,6.63
2023-04-02T20:08:43.497Z,4.57
2023-04-02T20:11:10.041Z,2.90
2023-04-02T20:13:37.840Z,4.88
2023-04-02T20:16:05.350Z,2.83
2023-04-02T20:18:32.069Z,5.43
2023-04-02T20:20:58.559Z,3.53
2023-04-02T20:23:25.076Z,3.00
2023-04-02T20:25:54.720Z,8.40
2023-04-02T20:28:22.256Z,6.25
2023-04-02T20:30:50.261Z,6.20
2023-04-02T20:33:18.366Z,3.80
2023-04-02T20:35:45.347Z,3.53
2023-04-02T20:38:11.842Z,1.67
2023-04-02T20:40:42.172Z,3.85
2023-04-02T20:43:09.852Z,4.70
2023-04-02T20:45:37.287Z,4.30
2023-04-02T20:48:04.377Z,6.35
2023-04-02T20:50:30.937Z,4.15
2023-04-02T20:53:00.909Z,3.95
2023-04-02T20:55:27.383Z,4.30
2023-04-02T20:57:53.855Z,4.55
2023-04-02T21:00:21.046Z,5.82
2023-04-02T21:02:47.554Z,4.25
2023-04-02T21:05:14.141Z,8.18
2023-04-02T21:07:40.886Z,5.57
2023-04-02T21:10:07.598Z,2.38
2023-04-02T21:12:34.062Z,4.95
2023-04-02T21:15:02.830Z,6.22
2023-04-02T21:17:29.702Z,4.38
2023-04-02T21:19:56.202Z,3.45
2023-04-02T21:22:22.816Z,4.00
2023-04-02T21:24:49.322Z,7.63
2023-04-02T21:27:16.793Z,3.22
2023-04-02T21:29:43.458Z,2.78
2023-04-02T21:32:20.995Z,1.83
2023-04-02T21:34:48.373Z,5.43
2023-04-02T21:37:14.886Z,6.85
2023-04-02T21:39:41.443Z,3.63
2023-04-02T21:42:07.975Z,5.75
2023-04-02T21:44:34.431Z,4.07
2023-04-02T21:47:00.988Z,6.18
2023-04-02T21:49:27.646Z,2.95
2023-04-02T21:51:54.199Z,2.80
2023-04-02T21:54:21.068Z,5.72
2023-04-02T21:56:48.017Z,3.40
2023-04-02T21:59:15.787Z,1.77
2023-04-02T22:01:44.760Z,3.90
2023-04-02T22:04:21.685Z,2.92
2023-04-02T22:06:48.807Z,5.53
2023-04-02T22:09:24.113Z,3.80
2023-04-02T22:11:54.325Z,5.40
2023-04-02T22:14:21.018Z,5.25
2023-04-02T22:16:47.702Z,5.05
2023-04-02T22:19:15.563Z,3.63
2023-04-02T22:21:42.112Z,1.98
2023-04-02T22:24:11.340Z,5.00
2023-04-02T22:26:38.399Z,4.93
2023-04-02T22:29:05.577Z,4.55
2023-04-02T22:31:35.072Z,2.50
2023-04-02T22:34:03.072Z,3.58
2023-04-02T22:36:29.561Z,5.22
2023-04-02T22:38:57.363Z,2.72
2023-04-02T22:41:26.192Z,2.45
2023-04-02T22:43:53.151Z,12.85
2023-04-02T22:46:20.725Z,1.88
2023-04-02T22:48:48.473Z,6.70
2023-04-02T22:51:16.594Z,3.25
2023-04-02T22:53:43.100Z,3.25
2023-04-02T22:56:14.812Z,8.75
2023-04-02T22:58:41.539Z,5.72
2023-04-02T23:01:15.719Z,4.03
2023-04-02T23:03:42.485Z,5.57
2023-04-02T23:06:11.623Z,5.05
2023-04-02T23:08:38.741Z,5.53
2023-04-02T23:11:11.286Z,6.68
2023-04-02T23:13:38.814Z,3.05
2023-04-02T23:16:07.324Z,6.47
2023-04-02T23:18:37.475Z,4.30
2023-04-02T23:21:04.745Z,3.75
2023-04-02T23:23:31.989Z,9.00
2023-04-02T23:26:29.342Z,3.10
2023-04-02T23:28:57.477Z,5.53
2023-04-02T23:31:24.035Z,5.63
2023-04-02T23:33:51.466Z,7.13
2023-04-02T23:36:28.110Z,5.72
2023-04-02T23:38:56.587Z,10.23
2023-04-02T23:41:24.786Z,4.40
2023-04-02T23:43:51.491Z,5.15
2023-04-02T23:46:18.077Z,3.70
2023-04-02T23:48:45.913Z,5.88
2023-04-02T23:51:13.265Z,3.28
2023-04-02T23:53:39.874Z,4.22
2023-04-02T23:56:06.476Z,5.72
2023-04-02T23:58:32.920Z,5.57
